ROMMA est une association bénévole à but non lucratif. Votre soutien est indispensable : ADHERER à ROMMA ou FAIRE un DON

Chélieu - (38, Isère)

Terres Froides (550 m)   Longitude: 5° 28' 48.00" E   Latitude: 45° 31' 02.39"N Station partenaire n°44
 

Détail journalier du     <<     >>

Température Precipitation Humidité Pression Vent Dir Rafale Dir. rafale
Heure (°C) (mm) (%) (hPa) (km/h) (km/h)
01:00 14.708410176S21S
02:00 14.308510175SSO21SSO
03:00 13.208710173SSE18S
04:00 12.1092101606SSE
05:00 11.309110161SSE8SO
06:00 12.109410161SSE15SSE
07:00 12.509210154S16OSO
08:00 12.609110155S24S
09:00 13.708710167SSO24SO
10:00 15.208110166SSO23OSO
11:00 17.207510168SSO26S
12:00 20.0067101613SO44OSO
13:00 21.9047101515OSO37O
14:00 23.0045101411SO34S
15:00 22.0052101312OSO29SO
16:00 22.2055101210SO29OSO
17:00 22.1056101110SO26SSO
18:00 19.9062101111OSO29SO
19:00 18.9065101111OSO29S
20:00 17.6074101112OSO35S
21:00 16.9077101114SSO34SSO
22:00 16.6078101110SSO26SSO
23:00 16.307510102SSO11SSO
minuit 15.707310091OSO11OSO

Graphique du 14-10-2019

 

Serveur OMMA